Time;durP1;ratioP1;P1;durP2;ratioP2;P2;SDS_P1;SDS_P2;PMS_P1;PMS_P2;Temp;Humidity;BMP_temperature;BMP_pressure;BME280_temperature;BME280_humidity;BME280_pressure;Samples;Min_cycle;Max_cycle;Signal;HPM_P1;HPM_P2
2024/03/02 00:02:25;;;;;;;15.10;1.75;;;7.90;69.40;;;;;;5000762;28;20690;-82
2024/03/02 00:04:51;;;;;;;16.02;2.42;;;7.90;69.30;;;;;;5001388;28;20174;-81
2024/03/02 00:07:19;;;;;;;14.63;1.90;;;7.90;69.10;;;;;;5018944;28;20166;-81
2024/03/02 00:09:45;;;;;;;14.77;2.30;;;7.90;69.90;;;;;;5018062;28;20534;-81
2024/03/02 00:12:15;;;;;;;18.40;2.83;;;8.00;68.50;;;;;;5017187;28;20166;-80
2024/03/02 00:14:41;;;;;;;14.80;2.10;;;8.00;66.10;;;;;;5017693;28;20159;-81
2024/03/02 00:17:24;;;;;;;15.80;2.30;;;8.00;69.20;;;;;;4999298;28;20173;-80
2024/03/02 00:19:50;;;;;;;15.50;2.20;;;8.00;69.70;;;;;;5016686;28;20388;-81
2024/03/02 00:22:16;;;;;;;16.40;2.50;;;8.00;67.70;;;;;;5016519;28;20187;-80
2024/03/02 00:24:42;;;;;;;15.68;2.30;;;7.90;71.60;;;;;;5016423;28;20235;-81
2024/03/02 00:27:11;;;;;;;16.10;2.70;;;8.00;68.00;;;;;;5017807;28;20170;-80
2024/03/02 00:29:37;;;;;;;15.05;2.38;;;8.00;68.40;;;;;;5017110;28;20174;-80
2024/03/02 00:32:05;;;;;;;15.77;2.40;;;8.00;70.90;;;;;;5017488;28;20182;-80
2024/03/02 00:34:31;;;;;;;16.00;2.40;;;8.00;68.40;;;;;;5017142;28;20309;-81
2024/03/02 00:37:00;;;;;;;14.30;1.97;;;8.00;66.40;;;;;;5016076;28;20198;-81
2024/03/02 00:39:25;;;;;;;14.88;1.80;;;8.00;66.50;;;;;;4998751;28;20572;-80
2024/03/02 00:41:51;;;;;;;14.80;2.10;;;8.00;65.70;;;;;;5016158;28;20187;-80
2024/03/02 00:44:23;;;;;;;15.47;2.63;;;8.10;63.30;;;;;;4999159;28;20648;-81
2024/03/02 00:46:49;;;;;;;15.07;2.30;;;8.20;59.00;;;;;;4999256;28;20644;-81
2024/03/02 00:49:21;;;;;;;15.37;2.20;;;8.20;59.60;;;;;;5016751;28;20178;-81
2024/03/02 00:51:49;;;;;;;15.40;2.20;;;8.10;60.50;;;;;;5017002;28;20190;-81
2024/03/02 00:54:19;;;;;;;15.02;2.22;;;8.20;61.90;;;;;;5016341;28;20217;-81
2024/03/02 00:56:44;;;;;;;15.40;2.30;;;8.20;60.20;;;;;;4999596;28;20210;-81
2024/03/02 00:59:13;;;;;;;16.00;1.80;;;8.20;58.30;;;;;;4998626;28;20559;-80
2024/03/02 01:01:39;;;;;;;16.27;2.28;;;8.20;56.00;;;;;;5016604;28;20198;-81
2024/03/02 01:04:05;;;;;;;15.03;1.90;;;8.20;55.90;;;;;;5016657;28;20154;-81
2024/03/02 01:06:30;;;;;;;16.53;2.00;;;8.20;57.50;;;;;;5016372;28;20158;-81
2024/03/02 01:08:56;;;;;;;14.60;2.00;;;8.20;58.30;;;;;;5016589;28;20402;-81
2024/03/02 01:11:22;;;;;;;17.67;2.60;;;8.10;59.90;;;;;;4998486;28;20499;-80
2024/03/02 01:13:48;;;;;;;14.53;2.00;;;8.00;63.10;;;;;;5016288;28;20404;-80
2024/03/02 01:16:15;;;;;;;14.60;1.90;;;8.00;63.90;;;;;;5016744;28;20628;-81
2024/03/02 01:18:41;;;;;;;15.00;1.90;;;8.00;65.80;;;;;;4998776;28;20540;-81
2024/03/02 01:21:07;;;;;;;14.30;2.00;;;8.00;62.60;;;;;;5017143;28;20191;-81
2024/03/02 01:23:36;;;;;;;14.70;2.20;;;8.00;67.20;;;;;;5017520;28;20204;-81
2024/03/02 01:26:01;;;;;;;16.50;2.05;;;7.90;71.70;;;;;;5017600;28;20169;-81
2024/03/02 01:28:27;;;;;;;15.20;1.90;;;7.80;71.70;;;;;;5017256;28;20170;-81
2024/03/02 01:30:53;;;;;;;15.77;2.40;;;7.80;78.30;;;;;;4999990;28;20191;-81
2024/03/02 01:33:20;;;;;;;15.17;2.30;;;7.80;78.90;;;;;;5017672;28;20405;-81
2024/03/02 01:35:45;;;;;;;15.25;2.17;;;7.90;80.80;;;;;;5017044;28;20171;-81
2024/03/02 01:38:11;;;;;;;14.23;1.50;;;7.90;78.30;;;;;;5017797;28;20197;-81
2024/03/02 01:40:38;;;;;;;15.33;2.03;;;7.90;77.50;;;;;;4999468;28;20206;-81
2024/03/02 01:43:07;;;;;;;14.00;1.42;;;7.90;77.60;;;;;;5000337;28;20191;-81
2024/03/02 01:45:33;;;;;;;14.77;2.00;;;7.90;77.50;;;;;;5016946;28;20178;-81
2024/03/02 01:47:59;;;;;;;14.57;2.08;;;7.90;77.90;;;;;;5000002;28;20209;-81
2024/03/02 01:50:30;;;;;;;14.77;2.20;;;7.90;79.20;;;;;;5002914;28;20187;-81
2024/03/02 01:52:56;;;;;;;14.82;1.80;;;7.90;75.90;;;;;;5003286;28;20497;-81
2024/03/02 01:55:22;;;;;;;14.60;1.60;;;8.00;74.60;;;;;;5002410;28;20309;-81
2024/03/02 01:57:50;;;;;;;14.83;2.07;;;7.90;74.70;;;;;;5020732;28;20654;-81
2024/03/02 02:00:16;;;;;;;14.10;1.58;;;8.00;74.30;;;;;;5021014;28;20182;-81
2024/03/02 02:02:43;;;;;;;14.67;1.80;;;8.00;71.90;;;;;;5020643;28;20186;-81
2024/03/02 02:05:09;;;;;;;17.60;2.05;;;8.00;72.20;;;;;;5002671;28;20413;-81
2024/03/02 02:07:35;;;;;;;14.80;2.13;;;8.00;72.20;;;;;;5002624;28;20166;-81
2024/03/02 02:10:01;;;;;;;14.45;1.90;;;8.00;70.40;;;;;;5020156;28;20195;-81
2024/03/02 02:12:27;;;;;;;14.60;1.80;;;8.00;71.40;;;;;;5002759;28;20181;-81
2024/03/02 02:14:52;;;;;;;18.53;1.90;;;8.00;67.80;;;;;;5002791;28;20209;-81
2024/03/02 02:17:18;;;;;;;14.70;1.50;;;7.90;67.90;;;;;;5020547;28;20163;-81
2024/03/02 02:19:44;;;;;;;14.50;1.70;;;7.90;71.40;;;;;;5019883;28;20551;-81
2024/03/02 02:22:10;;;;;;;14.33;1.60;;;7.90;69.40;;;;;;5020319;28;20456;-81
2024/03/02 02:24:39;;;;;;;13.90;1.52;;;7.90;69.50;;;;;;5020068;28;20634;-81
2024/03/02 02:27:05;;;;;;;14.30;1.65;;;7.90;69.00;;;;;;5020087;28;20163;-81
2024/03/02 02:29:30;;;;;;;17.93;2.20;;;7.90;67.60;;;;;;5019954;28;20481;-81
2024/03/02 02:31:56;;;;;;;13.80;1.37;;;8.00;66.80;;;;;;5019945;28;20209;-81
2024/03/02 02:34:22;;;;;;;14.47;2.03;;;8.00;66.70;;;;;;5018467;28;20162;-81
2024/03/02 02:36:47;;;;;;;14.17;1.53;;;8.00;62.00;;;;;;5000667;28;20257;-81
2024/03/02 02:39:20;;;;;;;14.97;1.90;;;8.00;62.80;;;;;;5018115;28;20183;-80
2024/03/02 02:41:45;;;;;;;14.88;1.67;;;8.00;64.10;;;;;;5000676;28;20194;-81
2024/03/02 02:44:14;;;;;;;14.00;1.47;;;8.00;63.50;;;;;;5000665;28;20281;-80
2024/03/02 02:46:40;;;;;;;14.10;1.40;;;8.00;63.80;;;;;;5000601;28;20167;-81
2024/03/02 02:49:06;;;;;;;14.32;1.60;;;8.00;60.00;;;;;;5018109;28;20717;-81
2024/03/02 02:51:32;;;;;;;15.20;1.50;;;8.00;60.10;;;;;;5017730;28;20237;-81
2024/03/02 02:53:58;;;;;;;15.60;1.80;;;8.00;58.10;;;;;;5017888;28;20170;-81
2024/03/02 02:56:23;;;;;;;14.00;1.43;;;8.00;60.90;;;;;;5017799;28;20575;-81
2024/03/02 02:58:49;;;;;;;15.10;2.30;;;8.00;61.00;;;;;;5000638;28;20567;-80
2024/03/02 03:01:19;;;;;;;14.77;1.63;;;8.00;58.90;;;;;;5016998;28;20674;-80
2024/03/02 03:03:45;;;;;;;15.75;1.70;;;8.00;62.40;;;;;;5000356;28;20170;-80
2024/03/02 03:06:11;;;;;;;14.40;1.88;;;8.00;58.90;;;;;;5017410;28;20159;-81
2024/03/02 03:08:40;;;;;;;14.05;1.33;;;8.00;60.70;;;;;;5018280;28;20167;-81
2024/03/02 03:11:05;;;;;;;16.40;1.98;;;8.10;58.00;;;;;;5017416;28;20186;-80
2024/03/02 03:13:32;;;;;;;13.93;1.40;;;8.00;55.10;;;;;;5017652;28;20163;-81
2024/03/02 03:15:58;;;;;;;13.75;1.35;;;8.00;58.20;;;;;;5017330;28;20173;-80
2024/03/02 03:18:24;;;;;;;15.47;1.67;;;8.00;59.00;;;;;;5017337;28;20163;-81
2024/03/02 03:20:50;;;;;;;15.77;1.50;;;8.00;59.70;;;;;;4999635;28;20426;-81
2024/03/02 03:23:16;;;;;;;14.50;1.43;;;8.00;60.00;;;;;;5018246;28;20226;-81
2024/03/02 03:25:43;;;;;;;16.58;1.45;;;8.00;57.70;;;;;;4999893;28;20417;-81
2024/03/02 03:28:12;;;;;;;14.75;1.65;;;8.00;58.10;;;;;;5017662;28;20159;-80
2024/03/02 03:30:38;;;;;;;15.95;1.75;;;8.00;59.20;;;;;;5017421;28;20272;-81
2024/03/02 03:33:07;;;;;;;14.60;1.50;;;8.00;59.60;;;;;;5017709;28;20163;-81
2024/03/02 03:35:33;;;;;;;14.43;1.73;;;8.00;60.30;;;;;;5017588;28;20162;-81
2024/03/02 03:37:59;;;;;;;14.53;1.80;;;8.00;60.60;;;;;;5017337;28;20170;-81
2024/03/02 03:40:24;;;;;;;14.90;2.10;;;8.00;56.10;;;;;;5017191;28;20206;-81
2024/03/02 03:42:50;;;;;;;14.67;2.03;;;7.90;61.10;;;;;;5017382;28;20521;-80
2024/03/02 03:45:16;;;;;;;15.77;1.80;;;7.90;65.00;;;;;;5017340;28;20402;-81
2024/03/02 03:47:42;;;;;;;16.10;2.05;;;7.90;62.90;;;;;;5001150;28;20239;-81
2024/03/02 03:50:08;;;;;;;14.57;1.83;;;7.90;64.50;;;;;;5018770;28;20202;-81
2024/03/02 03:52:34;;;;;;;14.73;2.03;;;8.00;65.40;;;;;;5018907;28;20775;-81
2024/03/02 03:55:00;;;;;;;14.67;2.43;;;8.00;59.50;;;;;;5018813;28;20178;-81
2024/03/02 03:57:26;;;;;;;18.20;2.08;;;7.90;62.50;;;;;;5001070;28;20380;-81
2024/03/02 03:59:52;;;;;;;17.63;2.53;;;7.90;66.60;;;;;;5000981;28;20175;-81
2024/03/02 04:02:18;;;;;;;15.02;2.22;;;7.90;64.80;;;;;;5018206;28;20190;-81
2024/03/02 04:04:44;;;;;;;16.50;2.50;;;7.80;65.80;;;;;;5018769;28;20181;-81
2024/03/02 04:07:10;;;;;;;14.90;1.83;;;7.70;70.90;;;;;;5018720;28;20165;-81
2024/03/02 04:09:35;;;;;;;17.40;2.20;;;7.70;74.50;;;;;;5018371;28;20405;-81
2024/03/02 04:12:01;;;;;;;14.50;1.70;;;7.70;75.80;;;;;;5016779;28;20214;-81
2024/03/02 04:14:27;;;;;;;14.70;1.97;;;7.70;75.00;;;;;;5000665;28;20416;-81
2024/03/02 04:16:52;;;;;;;15.80;1.63;;;7.70;78.00;;;;;;5018760;28;20480;-81
2024/03/02 04:19:18;;;;;;;16.23;2.30;;;7.70;74.20;;;;;;5000309;28;20211;-81
2024/03/02 04:21:44;;;;;;;15.60;1.50;;;7.60;80.40;;;;;;5017879;28;20212;-81
2024/03/02 04:24:11;;;;;;;14.27;1.70;;;7.50;83.30;;;;;;5000557;28;20167;-81
2024/03/02 04:26:36;;;;;;;14.40;1.60;;;7.50;86.20;;;;;;5018081;28;20162;-81
2024/03/02 04:29:02;;;;;;;14.80;1.53;;;7.50;89.00;;;;;;5018078;28;20166;-81
2024/03/02 04:31:27;;;;;;;14.10;1.70;;;7.40;89.00;;;;;;5017777;28;20190;-81
2024/03/02 04:33:54;;;;;;;14.00;1.47;;;7.50;88.80;;;;;;5018435;28;20560;-81
2024/03/02 04:36:19;;;;;;;14.52;1.90;;;7.50;88.20;;;;;;5018159;28;20162;-81
2024/03/02 04:38:45;;;;;;;16.87;2.03;;;7.50;84.50;;;;;;5017824;28;20177;-81
2024/03/02 04:41:11;;;;;;;14.50;1.83;;;7.50;84.80;;;;;;5017652;28;20225;-81
2024/03/02 04:43:36;;;;;;;14.97;2.47;;;7.40;86.60;;;;;;5018073;28;20167;-82
2024/03/02 04:46:02;;;;;;;14.80;2.13;;;7.40;88.40;;;;;;5000660;28;20186;-81
2024/03/02 04:48:28;;;;;;;15.13;2.33;;;7.40;90.10;;;;;;5000777;28;20628;-81
2024/03/02 04:50:54;;;;;;;15.00;1.90;;;7.30;90.10;;;;;;5000140;28;20186;-81
2024/03/02 04:53:19;;;;;;;15.13;2.33;;;7.30;91.70;;;;;;4999678;28;20448;-81
2024/03/02 04:55:58;;;;;;;15.40;2.70;;;7.20;92.70;;;;;;5018413;28;20163;-81
2024/03/02 04:58:23;;;;;;;31.55;3.08;;;7.10;94.40;;;;;;5016572;28;20154;-80
2024/03/02 05:00:49;;;;;;;17.50;2.30;;;7.10;95.20;;;;;;5016032;28;20547;-80
2024/03/02 05:03:14;;;;;;;15.80;2.40;;;7.00;96.10;;;;;;4998106;28;20265;-80
2024/03/02 05:05:40;;;;;;;17.73;2.70;;;7.00;96.50;;;;;;4998150;28;20710;-80
2024/03/02 05:08:06;;;;;;;15.33;2.10;;;7.00;97.90;;;;;;5015315;28;20514;-80
2024/03/02 05:10:32;;;;;;;15.73;2.45;;;6.90;98.80;;;;;;4997754;28;20702;-81
2024/03/02 05:12:59;;;;;;;16.80;2.10;;;6.90;99.40;;;;;;4998056;28;20183;-81
2024/03/02 05:15:25;;;;;;;15.02;2.00;;;6.90;99.80;;;;;;4997771;28;20174;-81
2024/03/02 05:17:51;;;;;;;16.60;2.20;;;6.80;99.90;;;;;;5015392;28;20171;-80
2024/03/02 05:20:16;;;;;;;14.35;1.85;;;6.80;99.90;;;;;;4998376;28;20617;-81
2024/03/02 05:22:42;;;;;;;14.40;1.83;;;6.80;99.90;;;;;;4998359;28;20241;-80
2024/03/02 05:25:12;;;;;;;15.30;1.90;;;6.80;99.90;;;;;;5019246;28;20838;-81
2024/03/02 05:27:37;;;;;;;15.73;2.13;;;6.80;99.90;;;;;;5002242;28;20175;-81
2024/03/02 05:30:06;;;;;;;16.77;2.03;;;6.70;99.90;;;;;;5002493;28;20232;-81
2024/03/02 05:32:34;;;;;;;14.93;1.92;;;6.80;99.90;;;;;;5001772;28;20662;-81
2024/03/02 05:35:00;;;;;;;19.25;2.05;;;6.80;99.90;;;;;;5019555;28;20170;-81
2024/03/02 05:37:25;;;;;;;14.60;1.80;;;6.90;99.80;;;;;;5001739;28;20321;-81
2024/03/02 05:39:51;;;;;;;13.90;1.60;;;6.90;98.20;;;;;;5001812;28;20198;-80
2024/03/02 05:42:17;;;;;;;18.87;1.70;;;6.90;96.80;;;;;;5018840;28;20197;-81
2024/03/02 05:44:43;;;;;;;16.13;2.00;;;6.80;97.10;;;;;;5018926;28;20244;-80
2024/03/02 05:47:08;;;;;;;14.27;1.90;;;6.90;97.30;;;;;;5019093;28;20167;-80
2024/03/02 05:49:35;;;;;;;15.13;2.00;;;6.80;98.00;;;;;;5019253;28;20586;-81
2024/03/02 05:52:00;;;;;;;15.43;2.25;;;6.80;97.40;;;;;;5001654;28;20244;-81
2024/03/02 05:54:26;;;;;;;14.33;1.80;;;6.90;98.80;;;;;;5019377;28;20166;-81
2024/03/02 05:56:51;;;;;;;15.30;1.87;;;6.80;97.50;;;;;;5001578;28;20174;-80
2024/03/02 05:59:17;;;;;;;16.27;1.60;;;6.80;98.40;;;;;;5019736;28;20174;-80
2024/03/02 06:01:44;;;;;;;14.93;2.00;;;6.80;98.50;;;;;;5019764;28;20202;-80
2024/03/02 06:04:13;;;;;;;14.80;1.95;;;6.80;97.50;;;;;;5019663;28;20170;-81
2024/03/02 06:06:40;;;;;;;14.40;1.70;;;6.90;97.70;;;;;;5019744;28;20258;-81
2024/03/02 06:09:12;;;;;;;15.40;1.80;;;7.00;96.30;;;;;;5020641;28;20162;-81
2024/03/02 06:11:39;;;;;;;14.50;1.80;;;6.90;96.50;;;;;;5003150;28;20194;-81
2024/03/02 06:14:05;;;;;;;15.00;1.90;;;6.90;96.40;;;;;;5002995;28;20259;-81
2024/03/02 06:16:31;;;;;;;14.65;1.42;;;6.90;96.60;;;;;;5020470;28;20182;-81
2024/03/02 06:19:02;;;;;;;14.63;1.55;;;6.90;95.60;;;;;;5002498;28;20190;-81
2024/03/02 06:21:28;;;;;;;15.57;1.70;;;6.90;95.20;;;;;;5002452;28;20221;-81
2024/03/02 06:23:54;;;;;;;17.27;1.85;;;7.00;96.50;;;;;;5020232;28;20171;-81
2024/03/02 06:26:20;;;;;;;14.10;1.80;;;7.00;96.50;;;;;;5020326;28;20698;-81
2024/03/02 06:28:46;;;;;;;17.65;2.53;;;6.90;95.50;;;;;;5002903;28;20173;-81
2024/03/02 06:31:12;;;;;;;14.70;1.80;;;7.00;95.30;;;;;;5020282;28;20229;-81
2024/03/02 06:33:38;;;;;;;14.97;2.00;;;7.00;93.80;;;;;;5020098;28;20174;-81
2024/03/02 06:36:04;;;;;;;15.03;1.67;;;7.00;94.50;;;;;;5019091;28;20590;-81
2024/03/02 06:38:32;;;;;;;15.68;1.75;;;7.10;93.00;;;;;;5019712;28;20415;-81
2024/03/02 06:40:57;;;;;;;13.90;1.50;;;7.10;92.30;;;;;;5002894;28;20199;-81
2024/03/02 06:43:23;;;;;;;13.80;1.50;;;7.20;91.20;;;;;;5019979;28;20190;-81
2024/03/02 06:45:50;;;;;;;17.47;1.80;;;7.20;91.40;;;;;;5019834;28;20398;-82
2024/03/02 06:48:19;;;;;;;14.55;1.60;;;7.20;90.40;;;;;;4985728;28;20406;-81
2024/03/02 06:50:46;;;;;;;15.20;2.13;;;7.10;90.90;;;;;;5019836;28;20236;-81
2024/03/02 06:53:12;;;;;;;14.82;1.88;;;7.20;91.00;;;;;;5019561;28;20540;-81
2024/03/02 06:55:38;;;;;;;14.20;1.77;;;7.20;91.30;;;;;;5002193;28;20175;-81
2024/03/02 06:58:04;;;;;;;14.80;1.90;;;7.10;92.90;;;;;;5019936;28;20173;-82
2024/03/02 07:00:30;;;;;;;16.52;2.10;;;7.10;92.20;;;;;;5019369;28;20190;-80
2024/03/02 07:02:56;;;;;;;14.43;1.83;;;7.10;93.70;;;;;;5019492;28;20264;-81
2024/03/02 07:05:21;;;;;;;17.20;1.70;;;7.20;92.50;;;;;;5019086;28;20245;-81
2024/03/02 07:07:47;;;;;;;15.00;1.90;;;7.20;93.60;;;;;;5001413;28;20174;-80
2024/03/02 07:10:13;;;;;;;17.07;1.60;;;7.20;92.30;;;;;;5001316;28;20568;-80
2024/03/02 07:12:38;;;;;;;16.83;2.27;;;7.30;93.00;;;;;;5001327;28;20170;-82
2024/03/02 07:17:33;;;;;;;17.38;2.25;;;7.40;91.70;;;;;;5018930;28;20229;-82
2024/03/02 07:19:59;;;;;;;14.75;1.60;;;7.50;90.60;;;;;;5018458;28;20202;-82
2024/03/02 07:22:24;;;;;;;14.98;1.85;;;7.60;88.50;;;;;;5017996;28;20706;-82
2024/03/02 07:24:51;;;;;;;15.03;1.50;;;7.70;82.30;;;;;;5000866;28;20163;-80
2024/03/02 07:27:17;;;;;;;15.23;2.42;;;7.80;82.00;;;;;;5017998;28;20159;-82
2024/03/02 07:29:43;;;;;;;14.47;2.40;;;7.80;77.30;;;;;;5000443;28;20257;-82
2024/03/02 07:32:10;;;;;;;15.40;1.92;;;7.90;74.60;;;;;;5018060;28;20221;-82
2024/03/02 07:34:37;;;;;;;15.95;2.33;;;7.90;77.10;;;;;;4999894;28;20175;-82
2024/03/02 07:37:03;;;;;;;15.98;1.90;;;8.00;74.80;;;;;;5000248;28;20181;-80
2024/03/02 07:39:29;;;;;;;15.18;2.30;;;8.00;69.80;;;;;;4999952;28;20260;-80
2024/03/02 07:41:55;;;;;;;15.20;2.30;;;8.00;71.30;;;;;;4999872;28;20198;-80
2024/03/02 07:44:21;;;;;;;16.13;2.53;;;8.00;68.70;;;;;;4999827;28;20166;-80
2024/03/02 07:46:47;;;;;;;15.40;2.60;;;8.10;65.50;;;;;;5017465;28;20527;-82
2024/03/02 07:49:16;;;;;;;15.45;2.45;;;8.10;66.80;;;;;;5018681;28;20643;-82
2024/03/02 07:51:42;;;;;;;14.90;2.40;;;8.20;66.90;;;;;;5000371;28;20194;-82
2024/03/02 07:54:08;;;;;;;15.48;1.90;;;8.20;66.30;;;;;;5017956;28;20170;-82
2024/03/02 07:56:34;;;;;;;17.57;2.27;;;8.30;60.00;;;;;;5000250;28;20177;-82
2024/03/02 07:59:01;;;;;;;14.23;2.00;;;8.30;56.10;;;;;;5017896;28;20402;-82
2024/03/02 08:01:30;;;;;;;15.80;2.08;;;8.30;57.90;;;;;;5000242;28;20194;-82
2024/03/02 08:03:59;;;;;;;14.50;1.75;;;8.30;58.20;;;;;;5018607;28;20158;-82
2024/03/02 08:06:28;;;;;;;15.15;2.10;;;8.40;52.90;;;;;;5017718;28;20159;-82
2024/03/02 08:08:55;;;;;;;16.10;2.00;;;8.50;55.20;;;;;;5000201;28;20171;-82
2024/03/02 08:11:21;;;;;;;14.20;1.83;;;8.50;50.90;;;;;;4999694;28;20228;-82
2024/03/02 08:13:47;;;;;;;15.00;1.90;;;8.60;49.80;;;;;;4999972;28;20174;-82
2024/03/02 08:16:14;;;;;;;15.02;2.15;;;8.60;48.00;;;;;;5017517;28;20170;-82
2024/03/02 08:18:40;;;;;;;17.13;2.05;;;8.60;50.50;;;;;;5017697;28;20158;-82
2024/03/02 08:21:07;;;;;;;16.03;2.10;;;8.60;50.70;;;;;;5017057;28;20189;-82
2024/03/02 08:23:34;;;;;;;15.75;2.03;;;8.70;53.80;;;;;;4999790;28;20270;-82
2024/03/02 08:25:59;;;;;;;19.35;1.90;;;8.80;48.10;;;;;;5016888;28;20640;-82
2024/03/02 08:28:25;;;;;;;16.30;1.67;;;8.90;48.50;;;;;;4999995;28;20265;-82
2024/03/02 08:30:51;;;;;;;16.13;2.10;;;9.00;46.00;;;;;;4999644;28;20249;-82
2024/03/02 08:33:16;;;;;;;14.60;1.70;;;9.10;48.50;;;;;;5017966;28;20170;-82
2024/03/02 08:35:42;;;;;;;18.70;2.73;;;9.20;43.00;;;;;;4999960;28;20178;-82
2024/03/02 08:38:08;;;;;;;17.03;2.13;;;9.30;38.30;;;;;;5017505;28;20548;-82
2024/03/02 08:40:34;;;;;;;17.60;2.40;;;9.30;35.50;;;;;;5017394;28;20865;-82
2024/03/02 08:43:00;;;;;;;17.80;1.80;;;9.40;35.10;;;;;;5017130;28;20448;-82
2024/03/02 08:45:25;;;;;;;14.37;1.73;;;9.40;30.90;;;;;;5017671;28;20778;-82
2024/03/02 08:47:51;;;;;;;14.90;1.70;;;9.40;30.30;;;;;;5017729;28;20165;-82
2024/03/02 08:50:17;;;;;;;17.80;1.80;;;9.40;26.50;;;;;;5016776;28;20193;-81
2024/03/02 08:52:43;;;;;;;18.00;1.97;;;9.40;29.90;;;;;;5017248;28;20245;-82
2024/03/02 08:55:09;;;;;;;14.60;1.63;;;9.50;27.20;;;;;;5000051;28;20202;-82
2024/03/02 08:57:35;;;;;;;15.95;1.55;;;9.50;21.30;;;;;;5017176;28;20926;-82
2024/03/02 09:00:01;;;;;;;15.57;1.73;;;9.60;21.50;;;;;;5017149;28;20187;-82
2024/03/02 09:02:26;;;;;;;14.87;1.93;;;9.60;22.00;;;;;;5017320;28;20197;-82
2024/03/02 09:04:52;;;;;;;15.47;1.77;;;9.70;20.00;;;;;;5017376;28;20452;-82
2024/03/02 09:07:18;;;;;;;15.90;1.57;;;9.70;14.00;;;;;;5017523;28;20165;-82
2024/03/02 09:09:44;;;;;;;15.53;1.30;;;9.80;16.40;;;;;;5016653;28;20420;-82
2024/03/02 09:12:10;;;;;;;15.57;1.40;;;9.80;17.00;;;;;;4999490;28;20409;-81
2024/03/02 09:14:37;;;;;;;14.40;1.52;;;9.90;20.00;;;;;;5017305;28;20166;-82
2024/03/02 09:17:03;;;;;;;15.10;1.50;;;9.90;16.80;;;;;;4998470;28;20406;-82
2024/03/02 09:19:29;;;;;;;14.30;1.70;;;10.00;13.10;;;;;;5017195;28;20177;-82
2024/03/02 09:21:55;;;;;;;15.75;1.30;;;10.10;11.50;;;;;;4999624;28;20267;-82
2024/03/02 09:24:22;;;;;;;14.87;1.37;;;10.10;10.30;;;;;;4999702;28;20166;-82
2024/03/02 09:26:47;;;;;;;13.65;1.35;;;10.20;7.70;;;;;;5017152;28;20405;-82
2024/03/02 09:29:14;;;;;;;14.80;1.60;;;10.30;5.30;;;;;;4999762;28;20653;-82
2024/03/02 09:31:41;;;;;;;14.30;1.33;;;10.40;4.90;;;;;;5016862;28;20182;-82
2024/03/02 09:34:07;;;;;;;14.05;1.38;;;10.40;1.00;;;;;;4999392;28;20167;-82
2024/03/02 09:36:33;;;;;;;14.80;1.30;;;10.50;1.00;;;;;;4999813;28;20194;-82
2024/03/02 09:38:58;;;;;;;14.17;1.30;;;10.60;1.00;;;;;;4999518;28;20189;-82
2024/03/02 09:41:24;;;;;;;15.03;1.83;;;10.60;1.00;;;;;;5016847;28;20687;-82
2024/03/02 09:43:50;;;;;;;14.45;1.67;;;10.60;1.00;;;;;;4999539;28;20171;-82
2024/03/02 09:46:17;;;;;;;14.90;1.40;;;10.70;1.00;;;;;;5016872;28;20174;-82
2024/03/02 09:48:44;;;;;;;13.80;1.45;;;10.80;1.00;;;;;;5017105;28;20241;-82
2024/03/02 09:51:11;;;;;;;14.85;1.48;;;10.80;1.00;;;;;;4999236;28;20186;-82
2024/03/02 09:53:37;;;;;;;15.27;1.67;;;10.80;1.00;;;;;;5017240;28;20167;-82
2024/03/02 09:56:04;;;;;;;18.30;1.70;;;10.90;1.00;;;;;;4999318;28;20181;-82
2024/03/02 09:58:33;;;;;;;15.50;1.55;;;10.90;1.00;;;;;;4999123;28;20253;-82
2024/03/02 10:00:59;;;;;;;13.77;1.30;;;11.00;1.00;;;;;;5016304;28;20189;-82
2024/03/02 10:03:24;;;;;;;14.33;1.60;;;11.10;1.00;;;;;;5016321;28;20269;-82
2024/03/02 10:05:51;;;;;;;14.33;1.57;;;11.20;1.00;;;;;;5017032;28;20163;-82
2024/03/02 10:08:17;;;;;;;20.80;1.85;;;11.30;1.00;;;;;;4999326;28;20180;-81
2024/03/02 10:10:44;;;;;;;13.75;1.42;;;11.40;1.00;;;;;;5017015;28;20221;-82
2024/03/02 10:13:11;;;;;;;13.63;1.10;;;11.60;1.00;;;;;;5019937;28;20170;-82
2024/03/02 10:15:40;;;;;;;14.30;1.73;;;11.70;1.00;;;;;;5002759;28;20504;-81
2024/03/02 10:18:10;;;;;;;15.32;1.80;;;11.70;1.00;;;;;;5001823;28;20166;-82
2024/03/02 10:20:36;;;;;;;15.18;1.45;;;11.80;1.00;;;;;;5019755;28;20191;-82
2024/03/02 10:23:16;;;;;;;19.40;2.10;;;11.90;1.00;;;;;;5020545;28;20228;-82
2024/03/02 10:25:43;;;;;;;15.40;2.22;;;11.90;1.00;;;;;;5020779;28;20370;-82
2024/03/02 10:28:09;;;;;;;15.40;1.90;;;11.90;1.00;;;;;;5019959;28;20173;-82
2024/03/02 10:30:35;;;;;;;14.90;1.57;;;11.90;1.00;;;;;;5002836;28;20186;-82
2024/03/02 10:33:02;;;;;;;14.77;1.65;;;12.00;1.00;;;;;;5002560;28;20639;-82
2024/03/02 10:35:28;;;;;;;14.32;1.50;;;12.10;1.00;;;;;;5019486;28;20167;-82
2024/03/02 10:37:58;;;;;;;15.65;2.08;;;12.20;1.00;;;;;;5002235;28;20175;-82
2024/03/02 10:40:24;;;;;;;14.13;1.48;;;12.20;1.00;;;;;;5019533;28;20640;-82
2024/03/02 10:42:53;;;;;;;14.93;1.77;;;12.30;1.00;;;;;;5019824;28;20209;-82
2024/03/02 10:45:23;;;;;;;16.70;1.67;;;12.40;1.00;;;;;;5019802;28;20170;-82
2024/03/02 10:47:50;;;;;;;18.77;1.65;;;12.40;1.00;;;;;;5019542;28;20249;-82
2024/03/02 10:50:15;;;;;;;14.55;1.60;;;12.50;1.00;;;;;;5019465;28;20273;-82
2024/03/02 10:52:42;;;;;;;15.33;1.87;;;12.60;1.00;;;;;;5019554;28;20198;-82
2024/03/02 10:55:09;;;;;;;14.88;1.83;;;12.70;1.00;;;;;;5001658;28;20171;-82
2024/03/02 10:57:56;;;;;;;14.65;1.20;;;12.50;1.00;;;;;;5019181;28;20167;-82
2024/03/02 11:00:29;;;;;;;14.65;1.65;;;12.60;1.00;;;;;;5019066;28;20547;-82
2024/03/02 11:02:58;;;;;;;13.77;1.38;;;12.70;1.00;;;;;;5021359;28;20179;-82
2024/03/02 11:05:29;;;;;;;14.50;1.90;;;12.90;1.00;;;;;;5022642;28;20190;-82
2024/03/02 11:08:05;;;;;;;14.20;1.42;;;13.00;1.00;;;;;;5020718;28;20151;-82
2024/03/02 11:10:37;;;;;;;15.05;1.95;;;13.10;1.00;;;;;;5020048;28;20629;-82
2024/03/02 11:13:08;;;;;;;14.55;1.35;;;13.00;1.00;;;;;;5019747;28;20174;-82
2024/03/02 11:15:38;;;;;;;14.10;1.70;;;13.20;1.00;;;;;;5001707;28;20163;-83
2024/03/02 11:18:08;;;;;;;15.25;1.55;;;13.00;1.00;;;;;;5019733;28;20249;-82
2024/03/02 11:20:39;;;;;;;16.17;1.85;;;13.10;1.00;;;;;;5018820;28;20537;-82
2024/03/02 11:23:06;;;;;;;16.20;1.60;;;13.20;1.00;;;;;;5019389;28;20194;-82
2024/03/02 11:25:36;;;;;;;16.05;1.40;;;13.20;1.00;;;;;;5002581;28;20162;-82
2024/03/02 11:28:07;;;;;;;15.05;1.55;;;13.20;1.00;;;;;;5019410;28;20182;-82
2024/03/02 11:30:33;;;;;;;15.53;1.20;;;13.30;1.00;;;;;;5019541;28;20175;-82
2024/03/02 11:33:09;;;;;;;15.77;1.43;;;13.50;1.00;;;;;;5019736;28;20548;-82
2024/03/02 11:35:51;;;;;;;14.15;1.60;;;13.50;1.00;;;;;;5001760;28;20177;-83
2024/03/02 11:38:19;;;;;;;14.25;1.70;;;13.60;1.00;;;;;;5019033;28;20159;-82
2024/03/02 11:40:44;;;;;;;16.23;2.10;;;13.50;1.00;;;;;;5018698;28;20202;-82
2024/03/02 11:43:11;;;;;;;14.80;1.50;;;13.50;1.00;;;;;;5019019;28;20549;-81
2024/03/02 11:45:42;;;;;;;13.60;1.23;;;13.30;1.00;;;;;;5001382;28;20205;-82
2024/03/02 11:48:12;;;;;;;13.80;1.38;;;13.40;1.00;;;;;;5019182;28;20405;-82
2024/03/02 11:50:42;;;;;;;14.33;1.30;;;13.60;1.00;;;;;;5001188;28;20221;-82
2024/03/02 11:53:10;;;;;;;13.97;1.40;;;13.70;1.00;;;;;;5019332;28;20436;-83
2024/03/02 11:55:37;;;;;;;20.90;1.80;;;13.80;1.00;;;;;;5001314;28;20854;-83
2024/03/02 11:58:03;;;;;;;13.70;1.40;;;14.00;1.00;;;;;;5018727;28;20447;-82
2024/03/02 12:00:29;;;;;;;14.40;1.50;;;14.00;1.00;;;;;;5018939;28;20516;-82
2024/03/02 12:03:04;;;;;;;14.03;1.33;;;13.80;1.00;;;;;;5019060;28;20600;-83
2024/03/02 12:05:30;;;;;;;15.77;1.50;;;13.80;1.00;;;;;;5018753;28;20622;-83
2024/03/02 12:07:57;;;;;;;14.93;1.67;;;13.60;1.00;;;;;;5001283;28;20455;-83
2024/03/02 12:10:24;;;;;;;15.20;1.77;;;13.40;1.00;;;;;;5018233;28;20425;-82
2024/03/02 12:12:56;;;;;;;14.17;1.43;;;13.40;1.00;;;;;;5018358;28;20405;-83
2024/03/02 12:15:30;;;;;;;18.23;1.30;;;13.40;1.00;;;;;;5000940;28;20409;-82
2024/03/02 12:18:00;;;;;;;14.20;1.30;;;13.40;1.00;;;;;;5018575;28;20159;-82
2024/03/02 12:20:29;;;;;;;14.00;1.30;;;13.50;1.00;;;;;;5018275;28;20421;-82
2024/03/02 12:22:58;;;;;;;14.33;1.27;;;13.70;1.00;;;;;;5018254;28;20575;-82
2024/03/02 12:25:24;;;;;;;14.37;1.50;;;13.90;1.00;;;;;;5000532;28;20496;-83
2024/03/02 12:27:53;;;;;;;19.40;1.50;;;14.20;1.00;;;;;;5018592;28;20399;-82
2024/03/02 12:30:19;;;;;;;13.70;1.30;;;14.20;1.00;;;;;;5018089;28;20488;-83
2024/03/02 12:32:46;;;;;;;15.70;1.27;;;14.30;1.00;;;;;;5017257;28;20405;-82
2024/03/02 12:35:15;;;;;;;14.87;1.33;;;14.10;1.00;;;;;;5018162;28;20406;-82
2024/03/02 12:37:51;;;;;;;14.07;1.40;;;14.10;1.00;;;;;;5000635;28;20536;-83
2024/03/02 12:40:18;;;;;;;14.97;1.50;;;14.10;1.00;;;;;;5000630;28;20452;-82
2024/03/02 12:42:48;;;;;;;13.83;1.50;;;14.10;1.00;;;;;;5017810;28;20456;-82
2024/03/02 12:45:14;;;;;;;14.33;1.47;;;14.20;1.00;;;;;;5017885;28;20485;-83
2024/03/02 12:47:41;;;;;;;13.80;1.30;;;14.40;1.00;;;;;;5018135;28;20473;-81